Time;durP1;ratioP1;P1;durP2;ratioP2;P2;SDS_P1;SDS_P2;PMS_P1;PMS_P2;Temp;Humidity;BMP_temperature;BMP_pressure;BME280_temperature;BME280_humidity;BME280_pressure;Samples;Min_cycle;Max_cycle;Signal;HPM_P1;HPM_P2
2022/04/27 00:02:13;;;;;;;10.33;8.17;;;;;;;-143.37;100.00;62585.38;5061340;28;20779;-78
2022/04/27 00:04:51;;;;;;;10.10;8.67;;;;;;;-143.37;100.00;62585.38;5068564;28;20867;-78
2022/04/27 00:07:27;;;;;;;11.37;8.60;;;;;;;-143.37;100.00;62585.38;5045151;28;20533;-78
2022/04/27 00:10:05;;;;;;;10.80;8.43;;;;;;;-143.37;100.00;62585.38;5067076;28;20434;-78
2022/04/27 00:12:41;;;;;;;11.60;9.27;;;;;;;-143.37;100.00;62585.38;5049509;28;20438;-78
2022/04/27 00:15:20;;;;;;;11.13;8.93;;;;;;;-143.37;100.00;62585.38;5050834;28;20446;-78
2022/04/27 00:17:57;;;;;;;11.40;9.07;;;;;;;-143.37;100.00;62585.38;5066267;28;20947;-78
2022/04/27 00:20:33;;;;;;;12.43;9.73;;;;;;;-143.37;100.00;62585.38;5050285;28;20448;-78
2022/04/27 00:23:09;;;;;;;13.60;10.27;;;;;;;-143.37;100.00;62585.38;5067226;28;20432;-78
2022/04/27 00:25:45;;;;;;;11.40;9.67;;;;;;;-143.37;100.00;62585.38;5045765;28;20592;-78
2022/04/27 00:28:20;;;;;;;12.67;10.00;;;;;;;-143.37;100.00;62585.38;5057122;28;20452;-78
2022/04/27 00:30:56;;;;;;;11.83;9.07;;;;;;;-143.37;100.00;62585.38;5054384;28;20449;-79
2022/04/27 00:33:36;;;;;;;11.17;8.63;;;;;;;-143.37;100.00;62585.38;5049979;28;20797;-78
2022/04/27 00:36:25;;;;;;;11.50;9.33;;;;;;;-143.37;100.00;62585.38;5058840;28;20461;-78
2022/04/27 00:39:00;;;;;;;10.83;8.60;;;;;;;-143.37;100.00;62585.38;5071738;28;20432;-78
2022/04/27 00:41:36;;;;;;;14.50;10.57;;;;;;;-143.37;100.00;62585.38;5073110;28;20524;-78
2022/04/27 00:44:12;;;;;;;12.73;10.03;;;;;;;-143.37;100.00;62585.38;5050693;28;21061;-78
2022/04/27 00:46:47;;;;;;;16.20;9.70;;;;;;;-143.37;100.00;62585.38;5069280;28;20424;-78
2022/04/27 00:49:25;;;;;;;12.40;9.90;;;;;;;-143.37;100.00;62585.38;5055431;28;20444;-78
2022/04/27 00:52:00;;;;;;;12.90;9.50;;;;;;;-143.37;100.00;62585.38;5052697;28;20440;-78
2022/04/27 00:54:37;;;;;;;13.17;10.23;;;;;;;-143.37;100.00;62585.38;5066780;28;20472;-78
2022/04/27 00:57:13;;;;;;;14.80;11.00;;;;;;;-143.37;100.00;62585.38;5069724;28;20529;-78
2022/04/27 00:59:48;;;;;;;12.90;10.60;;;;;;;-143.37;100.00;62585.38;5064151;28;20489;-78
2022/04/27 01:02:24;;;;;;;14.87;10.90;;;;;;;-143.37;100.00;62585.38;5074169;28;20505;-78
2022/04/27 01:05:03;;;;;;;12.50;10.37;;;;;;;-143.37;100.00;62585.38;5069930;28;20498;-78
2022/04/27 01:07:39;;;;;;;13.20;10.60;;;;;;;-143.37;100.00;62585.38;5072507;28;20433;-78
2022/04/27 01:10:15;;;;;;;15.20;11.67;;;;;;;-143.37;100.00;62585.38;5072488;28;20445;-78
2022/04/27 01:12:52;;;;;;;16.10;13.30;;;;;;;-143.37;100.00;62585.38;5067811;28;20425;-78
2022/04/27 01:15:32;;;;;;;16.73;12.10;;;;;;;-143.37;100.00;62585.38;5073588;28;20445;-78
2022/04/27 01:18:09;;;;;;;14.13;11.30;;;;;;;-143.37;100.00;62585.38;5059962;28;20434;-78
2022/04/27 01:20:50;;;;;;;13.80;10.60;;;;;;;-143.37;100.00;62585.38;5069462;28;20859;-78
2022/04/27 01:23:26;;;;;;;14.83;10.50;;;;;;;-143.37;100.00;62585.38;5067458;28;20446;-78
2022/04/27 01:26:20;;;;;;;13.80;11.13;;;;;;;-143.37;100.00;62585.38;5074817;28;20472;-78
2022/04/27 01:28:56;;;;;;;14.93;10.83;;;;;;;-143.37;100.00;62585.38;5062675;28;20441;-78
2022/04/27 01:31:32;;;;;;;15.40;12.00;;;;;;;-143.37;100.00;62585.38;5065451;28;20548;-78
2022/04/27 01:34:08;;;;;;;13.57;10.50;;;;;;;-143.37;100.00;62585.38;5070362;28;20436;-78
2022/04/27 01:36:45;;;;;;;16.33;11.83;;;;;;;-143.37;100.00;62585.38;5087314;28;20418;-78
2022/04/27 01:39:24;;;;;;;14.77;11.10;;;;;;;-143.37;100.00;62585.38;5069763;28;20433;-78
2022/04/27 01:42:00;;;;;;;16.03;11.97;;;;;;;-143.37;100.00;62585.38;5083850;28;20465;-78
2022/04/27 01:44:35;;;;;;;17.30;12.07;;;;;;;-143.37;100.00;62585.38;5068798;28;20500;-78
2022/04/27 01:47:11;;;;;;;14.60;11.67;;;;;;;-143.37;100.00;62585.38;5087124;28;20856;-78
2022/04/27 01:49:47;;;;;;;15.63;12.30;;;;;;;-143.37;100.00;62585.38;5089804;28;20455;-78
2022/04/27 01:55:20;;;;;;;16.60;12.83;;;;;;;-143.37;100.00;62585.38;5103251;28;20449;-78
2022/04/27 01:57:55;;;;;;;14.90;11.40;;;;;;;-143.37;100.00;62585.38;5070179;28;20953;-78
2022/04/27 02:00:33;;;;;;;17.73;12.10;;;;;;;-143.37;100.00;62585.38;5081324;28;20469;-78
2022/04/27 02:03:09;;;;;;;15.30;11.67;;;;;;;-143.37;100.00;62585.38;5088771;28;20425;-78
2022/04/27 02:05:45;;;;;;;18.10;13.10;;;;;;;-143.37;100.00;62585.38;5061690;28;20476;-78
2022/04/27 02:08:25;;;;;;;18.73;14.70;;;;;;;-143.37;100.00;62585.38;5071341;28;20970;-78
2022/04/27 02:11:01;;;;;;;21.43;14.70;;;;;;;-143.37;100.00;62585.38;5068121;28;20446;-78
2022/04/27 02:13:39;;;;;;;16.43;13.00;;;;;;;-143.37;100.00;62585.38;5066826;28;20453;-78
2022/04/27 02:16:15;;;;;;;23.50;14.40;;;;;;;-143.37;100.00;62585.38;5081247;28;20445;-78
2022/04/27 02:18:52;;;;;;;19.03;13.47;;;;;;;-143.37;100.00;62585.38;5062434;28;20440;-78
2022/04/27 02:21:28;;;;;;;17.70;13.00;;;;;;;-143.37;100.00;62585.38;5072391;28;20950;-78
2022/04/27 02:24:06;;;;;;;19.73;13.83;;;;;;;-143.37;100.00;62585.38;5085983;28;20532;-78
2022/04/27 02:26:44;;;;;;;18.37;13.60;;;;;;;-143.37;100.00;62585.38;5082523;28;20514;-78
2022/04/27 02:29:20;;;;;;;17.47;13.97;;;;;;;-143.37;100.00;62585.38;5064980;28;20448;-78
2022/04/27 02:31:56;;;;;;;18.57;14.47;;;;;;;-143.37;100.00;62585.38;5063070;28;20441;-78
2022/04/27 02:34:31;;;;;;;17.23;13.57;;;;;;;-143.37;100.00;62585.38;5082487;28;20453;-78
2022/04/27 02:37:07;;;;;;;16.80;13.80;;;;;;;-143.37;100.00;62585.38;5082087;28;20449;-78
2022/04/27 02:39:47;;;;;;;18.17;14.40;;;;;;;-143.37;100.00;62585.38;5067127;28;20477;-78
2022/04/27 02:42:24;;;;;;;18.97;13.60;;;;;;;-143.37;100.00;62585.38;5064895;28;20528;-78
2022/04/27 02:45:00;;;;;;;21.80;14.37;;;;;;;-143.37;100.00;62585.38;5071852;28;20462;-78
2022/04/27 02:47:36;;;;;;;20.03;15.50;;;;;;;-143.37;100.00;62585.38;5067042;28;20430;-77
2022/04/27 02:53:07;;;;;;;22.97;16.80;;;;;;;-143.37;100.00;62585.38;5067539;28;20833;-78
2022/04/27 02:55:46;;;;;;;19.93;13.10;;;;;;;-143.37;100.00;62585.38;5079808;28;21503;-78
2022/04/27 02:58:23;;;;;;;18.93;13.63;;;;;;;-143.37;100.00;62585.38;5064377;28;20449;-78
2022/04/27 03:00:59;;;;;;;17.60;12.80;;;;;;;-143.37;100.00;62585.38;5046994;28;20886;-78
2022/04/27 03:03:34;;;;;;;19.03;14.63;;;;;;;-143.37;100.00;62585.38;5050872;28;20433;-78
2022/04/27 03:06:10;;;;;;;18.07;13.70;;;;;;;-143.37;100.00;62585.38;5052274;28;20460;-78
2022/04/27 03:08:46;;;;;;;19.27;14.50;;;;;;;-143.37;100.00;62585.38;5047612;28;20452;-78
2022/04/27 03:11:25;;;;;;;19.60;15.13;;;;;;;-143.37;100.00;62585.38;5053913;28;20955;-78
2022/04/27 03:14:19;;;;;;;20.10;15.23;;;;;;;-143.37;100.00;62585.38;5066150;28;20450;-78
2022/04/27 03:16:55;;;;;;;21.73;14.83;;;;;;;-143.37;100.00;62585.38;5070312;28;20464;-78
2022/04/27 03:19:31;;;;;;;20.10;14.83;;;;;;;-143.37;100.00;62585.38;5051981;28;20473;-78
2022/04/27 03:22:08;;;;;;;20.30;14.97;;;;;;;-143.37;100.00;62585.38;5049427;28;20891;-78
2022/04/27 03:24:44;;;;;;;18.73;13.60;;;;;;;-143.37;100.00;62585.38;5049568;28;21025;-78
2022/04/27 03:27:29;;;;;;;18.90;13.80;;;;;;;-143.37;100.00;62585.38;5055042;28;20425;-79
2022/04/27 03:30:06;;;;;;;19.03;14.80;;;;;;;-143.37;100.00;62585.38;5052869;28;20460;-79
2022/04/27 03:32:42;;;;;;;20.40;14.57;;;;;;;-143.37;100.00;62585.38;5054106;28;20931;-78
2022/04/27 03:35:20;;;;;;;19.13;14.40;;;;;;;-143.37;100.00;62585.38;5053030;28;20780;-78
2022/04/27 03:37:58;;;;;;;23.10;15.20;;;;;;;-143.37;100.00;62585.38;5054533;28;20744;-78
2022/04/27 03:40:34;;;;;;;20.03;14.37;;;;;;;-143.37;100.00;62585.38;5065133;28;20445;-79
2022/04/27 03:43:11;;;;;;;22.40;15.10;;;;;;;-143.37;100.00;62585.38;5052531;28;20455;-78
2022/04/27 03:46:06;;;;;;;18.50;14.20;;;;;;;-143.37;100.00;62585.38;5053295;28;20539;-78
2022/04/27 03:48:45;;;;;;;20.13;14.23;;;;;;;-143.37;100.00;62585.38;5047681;28;20965;-78
2022/04/27 03:51:24;;;;;;;16.30;11.20;;;;;;;-143.37;100.00;62585.38;5052061;28;20425;-78
2022/04/27 03:53:59;;;;;;;16.77;13.30;;;;;;;-143.37;100.00;62585.38;5047491;28;20450;-78
2022/04/27 03:56:35;;;;;;;17.47;13.30;;;;;;;-143.37;100.00;62585.38;5051678;28;20815;-78
2022/04/27 03:59:15;;;;;;;19.23;14.43;;;;;;;-143.37;100.00;62585.38;5071352;28;20461;-78
2022/04/27 04:01:52;;;;;;;20.67;13.87;;;;;;;-143.37;100.00;62585.38;5053721;28;20437;-79
2022/04/27 04:04:28;;;;;;;18.43;13.03;;;;;;;-143.37;100.00;62585.38;5066745;28;20441;-78
2022/04/27 04:07:04;;;;;;;22.93;15.57;;;;;;;-143.37;100.00;62585.38;5050311;28;20472;-78
2022/04/27 04:09:49;;;;;;;20.50;14.37;;;;;;;-143.37;100.00;62585.38;5050013;28;20446;-79
2022/04/27 04:12:25;;;;;;;20.57;14.50;;;;;;;-143.37;100.00;62585.38;5048161;28;20536;-78
2022/04/27 04:15:25;;;;;;;22.90;15.20;;;;;;;-143.37;100.00;62585.38;5063158;28;20445;-78
2022/04/27 04:18:24;;;;;;;20.97;14.83;;;;;;;-143.37;100.00;62585.38;5082925;28;20445;-79
2022/04/27 04:21:26;;;;;;;22.47;14.67;;;;;;;-143.37;100.00;62585.38;5053453;28;20476;-79
2022/04/27 04:24:22;;;;;;;20.60;15.40;;;;;;;-143.37;100.00;62585.38;5053762;28;20528;-79
2022/04/27 04:29:52;;;;;;;18.80;13.80;;;;;;;-143.37;100.00;62585.38;5078196;28;20449;-79
2022/04/27 04:32:29;;;;;;;16.80;13.93;;;;;;;-143.37;100.00;62585.38;5076442;28;20472;-78
2022/04/27 04:35:19;;;;;;;22.17;14.90;;;;;;;-143.37;100.00;62585.38;5042196;28;20481;-78
2022/04/27 04:37:55;;;;;;;20.23;14.60;;;;;;;-143.37;100.00;62585.38;5050414;28;20899;-78
2022/04/27 04:40:32;;;;;;;18.33;13.40;;;;;;;-143.37;100.00;62585.38;5049886;28;20544;-78
2022/04/27 04:43:09;;;;;;;19.60;13.63;;;;;;;-143.37;100.00;62585.38;5050275;28;20488;-78
2022/04/27 04:45:45;;;;;;;21.03;15.03;;;;;;;-143.37;100.00;62585.38;5044979;28;21003;-78
2022/04/27 04:48:34;;;;;;;21.00;14.57;;;;;;;-143.37;100.00;62585.38;5083714;28;20437;-78
2022/04/27 04:51:36;;;;;;;19.70;14.83;;;;;;;-143.37;100.00;62585.38;5047243;28;20442;-79
2022/04/27 04:54:38;;;;;;;23.37;16.10;;;;;;;-143.37;100.00;62585.38;5043574;28;20440;-78
2022/04/27 04:57:27;;;;;;;24.50;15.90;;;;;;;-143.37;100.00;62585.38;5050965;28;20433;-79
2022/04/27 05:00:24;;;;;;;18.43;15.50;;;;;;;-143.37;100.00;62585.38;5075137;28;20477;-79
2022/04/27 05:03:23;;;;;;;23.10;16.50;;;;;;;-143.37;100.00;62585.38;5073101;28;20869;-78
2022/04/27 05:06:22;;;;;;;20.47;15.17;;;;;;;-143.37;100.00;62585.38;5076462;28;20453;-79
2022/04/27 05:09:30;;;;;;;20.23;15.30;;;;;;;-143.37;100.00;62585.38;5046951;28;20440;-78
2022/04/27 05:12:37;;;;;;;19.43;13.90;;;;;;;-143.37;100.00;62585.38;5068057;28;20434;-79
2022/04/27 05:15:24;;;;;;;21.40;16.13;;;;;;;-143.37;100.00;62585.38;5069690;28;20441;-79
2022/04/27 05:18:24;;;;;;;25.03;17.00;;;;;;;-143.37;100.00;62585.38;5072212;28;20433;-79
2022/04/27 05:21:28;;;;;;;23.50;15.77;;;;;;;-143.37;100.00;62585.38;5067892;28;20444;-78
2022/04/27 05:24:17;;;;;;;21.03;15.40;;;;;;;-143.37;100.00;62585.38;5074769;28;20444;-78
2022/04/27 05:27:12;;;;;;;23.00;16.13;;;;;;;-143.37;100.00;62585.38;5091378;28;20465;-78
2022/04/27 05:33:07;;;;;;;26.07;16.43;;;;;;;-143.37;100.00;62585.38;5071400;28;20460;-78
2022/04/27 05:36:02;;;;;;;25.77;18.20;;;;;;;-143.37;100.00;62585.38;5072542;28;20540;-78
2022/04/27 05:38:51;;;;;;;23.63;16.50;;;;;;;-143.37;100.00;62585.38;5068739;28;20433;-78
2022/04/27 05:41:27;;;;;;;23.60;15.50;;;;;;;-143.37;100.00;62585.38;5089660;28;20527;-79
2022/04/27 05:44:18;;;;;;;21.20;15.97;;;;;;;-143.37;100.00;62585.38;5097213;28;20552;-79
2022/04/27 05:47:23;;;;;;;22.50;15.53;;;;;;;-143.37;100.00;62585.38;5070235;28;20480;-78
2022/04/27 05:50:18;;;;;;;24.60;16.30;;;;;;;-143.37;100.00;62585.38;5100567;28;20438;-79
2022/04/27 05:53:17;;;;;;;21.67;16.50;;;;;;;-143.37;100.00;62585.38;5103109;28;20437;-79
2022/04/27 05:56:14;;;;;;;21.77;15.60;;;;;;;-143.37;100.00;62585.38;5085531;28;20438;-78
2022/04/27 05:58:50;;;;;;;20.60;15.80;;;;;;;-143.37;100.00;62585.38;5082663;28;20500;-78
2022/04/27 06:01:35;;;;;;;20.37;16.50;;;;;;;-143.37;100.00;62585.38;5053737;28;20848;-78
2022/04/27 06:04:17;;;;;;;23.00;16.40;;;;;;;-143.37;100.00;62585.38;5067826;28;20540;-78
2022/04/27 06:06:54;;;;;;;23.97;16.57;;;;;;;-143.37;100.00;62585.38;5054425;28;20783;-78
2022/04/27 06:09:35;;;;;;;21.00;15.20;;;;;;;-143.37;100.00;62585.38;5048285;28;20947;-79
2022/04/27 06:12:35;;;;;;;21.80;15.30;;;;;;;-143.37;100.00;62585.38;5054115;28;20441;-79
2022/04/27 06:15:36;;;;;;;23.63;16.97;;;;;;;-143.37;100.00;62585.38;5078787;28;20478;-79
2022/04/27 06:18:18;;;;;;;24.40;16.97;;;;;;;-143.37;100.00;62585.38;5045669;28;20441;-79
2022/04/27 06:20:54;;;;;;;28.40;17.10;;;;;;;-143.37;100.00;62585.38;5050290;28;20452;-78
2022/04/27 06:23:31;;;;;;;21.50;15.00;;;;;;;-143.37;100.00;62585.38;5056114;28;20437;-79
2022/04/27 06:26:07;;;;;;;19.50;14.70;;;;;;;-143.37;100.00;62585.38;5067436;28;20476;-79
2022/04/27 06:28:48;;;;;;;20.73;14.63;;;;;;;-143.37;100.00;62585.38;5055437;28;20440;-79
2022/04/27 06:31:24;;;;;;;22.80;15.83;;;;;;;-143.37;100.00;62585.38;5056727;28;20440;-79
2022/04/27 06:34:02;;;;;;;21.93;15.53;;;;;;;-143.37;100.00;62585.38;5065423;28;20548;-78
2022/04/27 06:36:38;;;;;;;19.57;15.40;;;;;;;-143.37;100.00;62585.38;5068981;28;20768;-79
2022/04/27 06:39:18;;;;;;;22.77;16.00;;;;;;;-143.37;100.00;62585.38;5052606;28;20449;-79
2022/04/27 06:41:58;;;;;;;23.10;17.47;;;;;;;-143.37;100.00;62585.38;5055898;28;20803;-79
2022/04/27 06:44:48;;;;;;;25.70;16.87;;;;;;;-143.37;100.00;62585.38;5061734;28;20448;-79
2022/04/27 06:47:42;;;;;;;23.80;17.97;;;;;;;-143.37;100.00;62585.38;5066412;28;20469;-79
2022/04/27 06:50:54;;;;;;;28.43;19.10;;;;;;;-143.37;100.00;62585.38;5061893;28;20445;-79
2022/04/27 06:53:56;;;;;;;23.97;17.43;;;;;;;-143.37;100.00;62585.38;5042133;28;20932;-79
2022/04/27 06:56:51;;;;;;;22.30;16.53;;;;;;;-143.37;100.00;62585.38;5076464;28;20556;-79
2022/04/27 06:59:44;;;;;;;20.40;16.63;;;;;;;-143.37;100.00;62585.38;5062881;28;20479;-79
2022/04/27 07:02:25;;;;;;;23.43;16.10;;;;;;;-143.37;100.00;62585.38;5070791;28;20436;-78
2022/04/27 07:05:01;;;;;;;21.57;16.13;;;;;;;-143.37;100.00;62585.38;5079800;28;20450;-78
2022/04/27 07:07:37;;;;;;;21.40;16.67;;;;;;;-143.37;100.00;62585.38;5071612;28;20550;-78
2022/04/27 07:10:17;;;;;;;18.53;14.93;;;;;;;-143.37;100.00;62585.38;5068470;28;20440;-79
2022/04/27 07:12:52;;;;;;;19.33;14.80;;;;;;;-143.37;100.00;62585.38;5085995;28;20445;-79
2022/04/27 07:15:28;;;;;;;20.70;15.63;;;;;;;-143.37;100.00;62585.38;5075287;28;20529;-78
2022/04/27 07:18:05;;;;;;;23.30;15.80;;;;;;;-143.37;100.00;62585.38;5082858;28;20424;-78
2022/04/27 07:20:41;;;;;;;20.43;16.07;;;;;;;-143.37;100.00;62585.38;5087426;28;20460;-78
2022/04/27 07:23:17;;;;;;;19.63;14.13;;;;;;;-143.37;100.00;62585.38;5083254;28;20962;-80
2022/04/27 07:25:53;;;;;;;22.30;16.03;;;;;;;-143.37;100.00;62585.38;5067968;28;20449;-80
2022/04/27 07:28:28;;;;;;;21.27;14.73;;;;;;;-143.37;100.00;62585.38;5071590;28;20441;-80
2022/04/27 07:31:04;;;;;;;20.17;15.40;;;;;;;-143.37;100.00;62585.38;5081895;28;20444;-80
2022/04/27 07:33:41;;;;;;;20.97;14.50;;;;;;;-143.37;100.00;62585.38;5077121;28;20779;-80
2022/04/27 07:36:18;;;;;;;19.40;15.67;;;;;;;-143.37;100.00;62585.38;5079244;28;20753;-79
2022/04/27 07:38:53;;;;;;;19.57;14.40;;;;;;;-143.37;100.00;62585.38;5056850;28;20475;-80
2022/04/27 07:41:28;;;;;;;19.23;13.47;;;;;;;-143.37;100.00;62585.38;5084087;28;20452;-78
2022/04/27 07:44:06;;;;;;;18.07;13.73;;;;;;;-143.37;100.00;62585.38;5067475;28;20425;-78
2022/04/27 07:46:47;;;;;;;17.97;14.43;;;;;;;-143.37;100.00;62585.38;5081588;28;20465;-80
2022/04/27 07:49:26;;;;;;;16.93;13.40;;;;;;;-143.37;100.00;62585.38;5069351;28;20437;-80
2022/04/27 07:52:01;;;;;;;19.23;14.10;;;;;;;-143.37;100.00;62585.38;5076090;28;20442;-80
2022/04/27 07:54:37;;;;;;;18.60;14.23;;;;;;;-143.37;100.00;62585.38;5081479;28;20453;-79
2022/04/27 07:57:12;;;;;;;17.50;12.90;;;;;;;-143.37;100.00;62585.38;5065621;28;20449;-79
2022/04/27 07:59:48;;;;;;;17.27;13.97;;;;;;;-143.37;100.00;62585.38;5084380;28;20531;-80
2022/04/27 08:02:24;;;;;;;18.10;13.03;;;;;;;-143.37;100.00;62585.38;5072115;28;20436;-79
2022/04/27 08:05:01;;;;;;;17.60;13.93;;;;;;;-143.37;100.00;62585.38;5077490;28;20445;-79
2022/04/27 08:07:38;;;;;;;18.73;14.27;;;;;;;-143.37;100.00;62585.38;5076366;28;20455;-80
2022/04/27 08:10:15;;;;;;;16.73;12.83;;;;;;;-143.37;100.00;62585.38;5070940;28;20819;-80
2022/04/27 08:12:52;;;;;;;18.10;12.90;;;;;;;-143.37;100.00;62585.38;5071737;28;20903;-79
2022/04/27 08:15:27;;;;;;;15.73;12.60;;;;;;;-143.37;100.00;62585.38;5084265;28;20460;-80
2022/04/27 08:18:06;;;;;;;16.73;12.60;;;;;;;-143.37;100.00;62585.38;5082887;28;20431;-79
2022/04/27 08:23:40;;;;;;;15.93;11.30;;;;;;;-143.37;100.00;62585.38;5083868;28;20499;-79
2022/04/27 08:26:16;;;;;;;14.33;11.87;;;;;;;-143.37;100.00;62585.38;5087249;28;20801;-78
2022/04/27 08:28:52;;;;;;;16.67;11.27;;;;;;;-143.37;100.00;62585.38;5072757;28;20434;-78
2022/04/27 08:31:27;;;;;;;14.00;11.67;;;;;;;-143.37;100.00;62585.38;5083498;28;20904;-78
2022/04/27 08:34:03;;;;;;;13.03;10.87;;;;;;;-143.37;100.00;62585.38;5070943;28;20429;-78
2022/04/27 08:36:40;;;;;;;16.83;12.37;;;;;;;-143.37;100.00;62585.38;5087747;28;20429;-78
2022/04/27 08:39:17;;;;;;;13.43;10.30;;;;;;;-143.37;100.00;62585.38;5083523;28;20555;-78
2022/04/27 08:41:53;;;;;;;15.17;10.27;;;;;;;-143.37;100.00;62585.38;5079811;28;20980;-78
2022/04/27 08:44:29;;;;;;;17.17;11.80;;;;;;;-143.37;100.00;62585.38;5066238;28;20441;-78
2022/04/27 08:47:05;;;;;;;13.47;11.03;;;;;;;-143.37;100.00;62585.38;5063277;28;20460;-78
2022/04/27 08:49:41;;;;;;;14.07;10.10;;;;;;;-143.37;100.00;62585.38;5084966;28;20836;-78
2022/04/27 08:52:18;;;;;;;13.03;10.30;;;;;;;-143.37;100.00;62585.38;5079083;28;20444;-78
2022/04/27 08:54:54;;;;;;;11.80;9.70;;;;;;;-143.37;100.00;62585.38;5087433;28;20963;-78
2022/04/27 08:57:30;;;;;;;12.97;9.40;;;;;;;-143.37;100.00;62585.38;5072263;28;20437;-78
2022/04/27 09:00:08;;;;;;;13.87;10.07;;;;;;;-143.37;100.00;62585.38;5070643;28;20473;-78
2022/04/27 09:02:44;;;;;;;12.67;9.13;;;;;;;-143.37;100.00;62585.38;5063861;28;20429;-78
2022/04/27 09:05:21;;;;;;;12.53;9.80;;;;;;;-143.37;100.00;62585.38;5064472;28;20445;-78
2022/04/27 09:07:58;;;;;;;13.23;10.70;;;;;;;-143.37;100.00;62585.38;5048811;28;20460;-78
2022/04/27 09:10:35;;;;;;;11.07;8.93;;;;;;;-143.37;100.00;62585.38;5066454;28;20948;-78
2022/04/27 09:13:10;;;;;;;12.37;9.77;;;;;;;-143.37;100.00;62585.38;5065205;28;21004;-78
2022/04/27 09:15:46;;;;;;;14.60;11.13;;;;;;;-143.37;100.00;62585.38;5064558;28;20815;-80
2022/04/27 09:21:17;;;;;;;11.40;8.90;;;;;;;-143.37;100.00;62585.38;5051340;28;21787;-80
2022/04/27 09:24:03;;;;;;;13.10;10.77;;;;;;;-143.37;100.00;62585.38;5049317;28;20440;-80
2022/04/27 09:26:39;;;;;;;13.50;10.10;;;;;;;-143.37;100.00;62585.38;5068278;28;20840;-80
2022/04/27 09:29:24;;;;;;;11.13;9.23;;;;;;;-143.37;100.00;62585.38;5067321;28;20456;-80
2022/04/27 09:32:00;;;;;;;12.50;9.20;;;;;;;-143.37;100.00;62585.38;5052205;28;20442;-78
2022/04/27 09:34:44;;;;;;;12.03;8.37;;;;;;;-143.37;100.00;62585.38;5067394;28;20468;-78
2022/04/27 09:37:21;;;;;;;12.40;9.43;;;;;;;-143.37;100.00;62585.38;5048649;28;20440;-79
2022/04/27 09:40:04;;;;;;;11.13;8.63;;;;;;;-143.37;100.00;62585.38;5074661;28;20448;-79
2022/04/27 09:42:43;;;;;;;9.87;8.57;;;;;;;-143.37;100.00;62585.38;5066997;28;20473;-79
2022/04/27 09:45:20;;;;;;;9.37;7.33;;;;;;;-143.37;100.00;62585.38;5060978;28;20783;-79
2022/04/27 09:48:01;;;;;;;10.67;8.23;;;;;;;-143.37;100.00;62585.38;5068118;28;20464;-79
2022/04/27 09:50:47;;;;;;;11.27;7.93;;;;;;;-143.37;100.00;62585.38;5050971;28;20441;-79
2022/04/27 09:53:25;;;;;;;10.23;7.77;;;;;;;-143.37;100.00;62585.38;5052186;28;20441;-79
2022/04/27 09:56:04;;;;;;;10.47;8.10;;;;;;;-143.37;100.00;62585.38;5080723;28;20433;-79
2022/04/27 09:58:43;;;;;;;8.60;7.20;;;;;;;-143.37;100.00;62585.38;5066153;28;20445;-79
2022/04/27 10:01:22;;;;;;;9.10;7.20;;;;;;;-143.37;100.00;62585.38;5066672;28;20494;-79
2022/04/27 10:03:58;;;;;;;8.50;6.43;;;;;;;-143.37;100.00;62585.38;5070801;28;20445;-78
2022/04/27 10:06:35;;;;;;;10.70;8.33;;;;;;;-143.37;100.00;62585.38;5070248;28;20461;-78
2022/04/27 10:09:10;;;;;;;8.70;6.97;;;;;;;-143.37;100.00;62585.38;5068014;28;20769;-79
2022/04/27 10:11:48;;;;;;;11.10;8.20;;;;;;;-143.37;100.00;62585.38;5066537;28;20516;-80
2022/04/27 10:14:26;;;;;;;11.50;7.87;;;;;;;-143.37;100.00;62585.38;5064197;28;21015;-79
2022/04/27 10:17:01;;;;;;;10.33;8.47;;;;;;;-143.37;100.00;62585.38;5056481;28;20440;-79
2022/04/27 10:19:37;;;;;;;6.80;5.63;;;;;;;-143.37;100.00;62585.38;5069347;28;20962;-79
2022/04/27 10:22:25;;;;;;;9.10;7.87;;;;;;;-143.37;100.00;62585.38;5069022;28;20476;-79
2022/04/27 10:25:06;;;;;;;9.03;7.43;;;;;;;-143.37;100.00;62585.38;5069818;28;20446;-79
2022/04/27 10:27:44;;;;;;;9.00;7.47;;;;;;;-143.37;100.00;62585.38;5053497;28;20479;-78
2022/04/27 10:30:42;;;;;;;6.77;6.00;;;;;;;-143.37;100.00;62585.38;5054425;28;20441;-79
2022/04/27 10:33:39;;;;;;;9.03;6.73;;;;;;;-143.37;100.00;62585.38;5070858;28;20947;-79
2022/04/27 10:36:22;;;;;;;6.23;5.10;;;;;;;-143.37;100.00;62585.38;5067136;28;20448;-79
2022/04/27 10:39:21;;;;;;;5.50;4.87;;;;;;;-143.37;100.00;62585.38;5066989;28;20920;-79
2022/04/27 10:42:14;;;;;;;5.30;4.50;;;;;;;-143.37;100.00;62585.38;5070362;28;20495;-79
2022/04/27 10:45:10;;;;;;;6.67;5.40;;;;;;;-143.37;100.00;62585.38;5054198;28;20453;-79
2022/04/27 10:47:52;;;;;;;5.13;4.27;;;;;;;-143.37;100.00;62585.38;5055423;28;20465;-79
2022/04/27 10:50:33;;;;;;;6.10;4.97;;;;;;;-143.37;100.00;62585.38;5087396;28;20847;-79
2022/04/27 10:53:17;;;;;;;5.77;5.07;;;;;;;-143.37;100.00;62585.38;5071519;28;20784;-79
2022/04/27 10:55:54;;;;;;;5.80;5.20;;;;;;;-143.37;100.00;62585.38;5054577;28;20492;-79
2022/04/27 10:58:32;;;;;;;6.33;4.87;;;;;;;-143.37;100.00;62585.38;5067487;28;20460;-79
2022/04/27 11:01:24;;;;;;;5.20;4.70;;;;;;;-143.37;100.00;62585.38;5088248;28;20477;-78
2022/04/27 11:04:14;;;;;;;5.40;4.90;;;;;;;-143.37;100.00;62585.38;5052733;28;20445;-79
2022/04/27 11:07:32;;;;;;;6.10;5.50;;;;;;;-143.37;100.00;62585.38;5064940;28;20546;-80
2022/04/27 11:10:14;;;;;;;5.60;4.50;;;;;;;-143.37;100.00;62585.38;5050826;28;20453;-79
2022/04/27 11:12:54;;;;;;;5.90;4.67;;;;;;;-143.37;100.00;62585.38;5057284;28;20842;-79
2022/04/27 11:15:30;;;;;;;4.27;3.87;;;;;;;-143.37;100.00;62585.38;5081726;28;20523;-80
2022/04/27 11:18:09;;;;;;;5.77;3.90;;;;;;;-143.37;100.00;62585.38;5038614;28;20453;-80
2022/04/27 11:20:44;;;;;;;5.53;4.73;;;;;;;-143.37;100.00;62585.38;5073725;28;20434;-80
2022/04/27 11:23:21;;;;;;;5.37;4.20;;;;;;;-143.37;100.00;62585.38;5063621;28;20464;-80
2022/04/27 11:25:57;;;;;;;5.53;4.97;;;;;;;-143.37;100.00;62585.38;5060744;28;20808;-80
2022/04/27 11:28:34;;;;;;;6.33;5.73;;;;;;;-143.37;100.00;62585.38;5046520;28;20551;-80
2022/04/27 11:31:09;;;;;;;5.90;5.00;;;;;;;-143.37;100.00;62585.38;5061129;28;20484;-79
2022/04/27 11:33:58;;;;;;;5.33;4.60;;;;;;;-143.37;100.00;62585.38;5082807;28;20528;-78
2022/04/27 11:36:34;;;;;;;6.43;5.53;;;;;;;-143.37;100.00;62585.38;5048152;28;20852;-79
2022/04/27 11:39:20;;;;;;;5.67;5.17;;;;;;;-143.37;100.00;62585.38;5046360;28;20450;-79
2022/04/27 11:42:00;;;;;;;5.90;5.30;;;;;;;-143.37;100.00;62585.38;5063152;28;20426;-79
2022/04/27 11:44:36;;;;;;;6.03;5.43;;;;;;;-143.37;100.00;62585.38;5060483;28;20479;-79
2022/04/27 11:47:28;;;;;;;5.90;5.30;;;;;;;-143.37;100.00;62585.38;5053636;28;20437;-79
2022/04/27 11:50:07;;;;;;;6.70;6.00;;;;;;;-143.37;100.00;62585.38;5067594;28;20445;-79
2022/04/27 11:52:42;;;;;;;6.07;5.47;;;;;;;-143.37;100.00;62585.38;5056929;28;20442;-78
2022/04/27 11:55:18;;;;;;;5.90;5.27;;;;;;;-143.37;100.00;62585.38;5063863;28;20455;-79
2022/04/27 11:57:55;;;;;;;6.57;5.87;;;;;;;-143.37;100.00;62585.38;5064118;28;20437;-78
2022/04/27 12:00:31;;;;;;;6.90;5.40;;;;;;;-143.37;100.00;62585.38;5078720;28;20893;-80
2022/04/27 12:03:07;;;;;;;5.53;5.03;;;;;;;-143.37;100.00;62585.38;5096601;28;20449;-79
2022/04/27 12:05:50;;;;;;;6.50;5.37;;;;;;;-143.37;100.00;62585.38;5071811;28;20442;-79
2022/04/27 12:08:27;;;;;;;5.93;5.33;;;;;;;-143.37;100.00;62585.38;5079803;28;20508;-78
2022/04/27 12:11:02;;;;;;;5.37;4.87;;;;;;;-143.37;100.00;62585.38;5064859;28;20437;-78
2022/04/27 12:13:38;;;;;;;6.20;5.60;;;;;;;-143.37;100.00;62585.38;5082220;28;20468;-78
2022/04/27 12:16:13;;;;;;;6.40;5.23;;;;;;;-143.37;100.00;62585.38;5084152;28;20543;-78